sensor_id;sensor_type;location;lat;lon;timestamp;P1;durP1;ratioP1;P2;durP2;ratioP2
77415;SDS011;66489;49.230;8.520;2023-03-16T00:02:18;14.40;;;9.02;;
77415;SDS011;66489;49.230;8.520;2023-03-16T00:04:44;14.38;;;9.43;;
77415;SDS011;66489;49.230;8.520;2023-03-16T00:07:13;13.93;;;8.40;;
77415;SDS011;66489;49.230;8.520;2023-03-16T00:09:40;14.90;;;9.63;;
77415;SDS011;66489;49.230;8.520;2023-03-16T00:12:10;14.90;;;8.98;;
77415;SDS011;66489;49.230;8.520;2023-03-16T00:14:41;14.43;;;9.52;;
77415;SDS011;66489;49.230;8.520;2023-03-16T00:17:13;16.95;;;9.95;;
77415;SDS011;66489;49.230;8.520;2023-03-16T00:19:48;15.48;;;9.65;;
77415;SDS011;66489;49.230;8.520;2023-03-16T00:22:20;17.33;;;10.32;;
77415;SDS011;66489;49.230;8.520;2023-03-16T00:24:48;14.35;;;9.57;;
77415;SDS011;66489;49.230;8.520;2023-03-16T00:27:15;16.20;;;9.32;;
77415;SDS011;66489;49.230;8.520;2023-03-16T00:29:43;16.13;;;9.85;;
77415;SDS011;66489;49.230;8.520;2023-03-16T00:32:14;16.67;;;10.45;;
77415;SDS011;66489;49.230;8.520;2023-03-16T00:34:46;16.10;;;9.60;;
77415;SDS011;66489;49.230;8.520;2023-03-16T00:37:14;17.52;;;10.15;;
77415;SDS011;66489;49.230;8.520;2023-03-16T00:39:42;18.07;;;10.20;;
77415;SDS011;66489;49.230;8.520;2023-03-16T00:42:11;16.50;;;10.27;;
77415;SDS011;66489;49.230;8.520;2023-03-16T00:44:39;19.02;;;10.10;;
77415;SDS011;66489;49.230;8.520;2023-03-16T00:47:07;16.77;;;10.13;;
77415;SDS011;66489;49.230;8.520;2023-03-16T00:49:34;15.93;;;9.73;;
77415;SDS011;66489;49.230;8.520;2023-03-16T00:52:05;21.05;;;10.10;;
77415;SDS011;66489;49.230;8.520;2023-03-16T00:54:33;17.95;;;10.60;;
77415;SDS011;66489;49.230;8.520;2023-03-16T00:57:00;18.33;;;10.57;;
77415;SDS011;66489;49.230;8.520;2023-03-16T00:59:30;18.10;;;10.32;;
77415;SDS011;66489;49.230;8.520;2023-03-16T01:01:56;16.70;;;10.40;;
77415;SDS011;66489;49.230;8.520;2023-03-16T01:04:24;16.00;;;9.55;;
77415;SDS011;66489;49.230;8.520;2023-03-16T01:06:54;22.23;;;11.02;;
77415;SDS011;66489;49.230;8.520;2023-03-16T01:09:21;17.77;;;10.52;;
77415;SDS011;66489;49.230;8.520;2023-03-16T01:11:50;17.30;;;10.18;;
77415;SDS011;66489;49.230;8.520;2023-03-16T01:14:19;17.25;;;10.32;;
77415;SDS011;66489;49.230;8.520;2023-03-16T01:16:47;17.83;;;11.40;;
77415;SDS011;66489;49.230;8.520;2023-03-16T01:19:15;17.55;;;11.27;;
77415;SDS011;66489;49.230;8.520;2023-03-16T01:21:44;17.10;;;10.40;;
77415;SDS011;66489;49.230;8.520;2023-03-16T01:24:10;19.10;;;10.90;;
77415;SDS011;66489;49.230;8.520;2023-03-16T01:26:41;18.77;;;10.77;;
77415;SDS011;66489;49.230;8.520;2023-03-16T01:29:07;19.88;;;11.93;;
77415;SDS011;66489;49.230;8.520;2023-03-16T01:31:38;19.13;;;11.88;;
77415;SDS011;66489;49.230;8.520;2023-03-16T01:34:06;21.30;;;12.13;;
77415;SDS011;66489;49.230;8.520;2023-03-16T01:36:32;18.35;;;11.40;;
77415;SDS011;66489;49.230;8.520;2023-03-16T01:39:04;19.77;;;12.02;;
77415;SDS011;66489;49.230;8.520;2023-03-16T01:41:39;20.73;;;11.88;;
77415;SDS011;66489;49.230;8.520;2023-03-16T01:44:09;21.95;;;12.65;;
77415;SDS011;66489;49.230;8.520;2023-03-16T01:46:38;20.35;;;12.30;;
77415;SDS011;66489;49.230;8.520;2023-03-16T01:49:15;20.83;;;12.35;;
77415;SDS011;66489;49.230;8.520;2023-03-16T01:51:51;19.17;;;11.32;;
77415;SDS011;66489;49.230;8.520;2023-03-16T01:57:25;21.73;;;12.57;;
77415;SDS011;66489;49.230;8.520;2023-03-16T01:59:56;23.33;;;13.57;;
77415;SDS011;66489;49.230;8.520;2023-03-16T02:02:59;23.63;;;13.80;;
77415;SDS011;66489;49.230;8.520;2023-03-16T02:05:42;21.85;;;12.98;;
77415;SDS011;66489;49.230;8.520;2023-03-16T02:08:14;23.60;;;12.52;;
77415;SDS011;66489;49.230;8.520;2023-03-16T02:10:42;24.05;;;13.82;;
77415;SDS011;66489;49.230;8.520;2023-03-16T02:13:10;23.35;;;14.13;;
77415;SDS011;66489;49.230;8.520;2023-03-16T02:15:37;22.58;;;12.68;;
77415;SDS011;66489;49.230;8.520;2023-03-16T02:18:04;23.58;;;13.85;;
77415;SDS011;66489;49.230;8.520;2023-03-16T02:20:48;23.67;;;13.40;;
77415;SDS011;66489;49.230;8.520;2023-03-16T02:23:26;25.02;;;14.13;;
77415;SDS011;66489;49.230;8.520;2023-03-16T02:26:55;28.45;;;15.90;;
77415;SDS011;66489;49.230;8.520;2023-03-16T02:32:26;25.83;;;14.73;;
77415;SDS011;66489;49.230;8.520;2023-03-16T02:34:53;25.80;;;15.20;;
77415;SDS011;66489;49.230;8.520;2023-03-16T02:37:21;24.83;;;14.68;;
77415;SDS011;66489;49.230;8.520;2023-03-16T02:39:47;28.15;;;15.15;;
77415;SDS011;66489;49.230;8.520;2023-03-16T02:42:17;25.93;;;15.97;;
77415;SDS011;66489;49.230;8.520;2023-03-16T02:44:49;29.58;;;16.15;;
77415;SDS011;66489;49.230;8.520;2023-03-16T02:50:01;30.60;;;15.85;;
77415;SDS011;66489;49.230;8.520;2023-03-16T02:52:33;27.27;;;16.05;;
77415;SDS011;66489;49.230;8.520;2023-03-16T02:55:00;27.83;;;15.88;;
77415;SDS011;66489;49.230;8.520;2023-03-16T02:57:27;27.75;;;16.02;;
77415;SDS011;66489;49.230;8.520;2023-03-16T02:59:58;29.27;;;16.52;;
77415;SDS011;66489;49.230;8.520;2023-03-16T03:02:24;32.05;;;16.75;;
77415;SDS011;66489;49.230;8.520;2023-03-16T03:04:53;30.23;;;16.92;;
77415;SDS011;66489;49.230;8.520;2023-03-16T03:07:23;27.10;;;16.83;;
77415;SDS011;66489;49.230;8.520;2023-03-16T03:10:01;29.83;;;16.88;;
77415;SDS011;66489;49.230;8.520;2023-03-16T03:12:30;31.45;;;16.67;;
77415;SDS011;66489;49.230;8.520;2023-03-16T03:15:01;30.15;;;16.77;;
77415;SDS011;66489;49.230;8.520;2023-03-16T03:17:33;28.35;;;16.45;;
77415;SDS011;66489;49.230;8.520;2023-03-16T03:20:00;30.27;;;16.85;;
77415;SDS011;66489;49.230;8.520;2023-03-16T03:22:39;27.33;;;15.52;;
77415;SDS011;66489;49.230;8.520;2023-03-16T03:25:05;29.98;;;16.00;;
77415;SDS011;66489;49.230;8.520;2023-03-16T03:27:32;32.42;;;16.98;;
77415;SDS011;66489;49.230;8.520;2023-03-16T03:30:05;29.20;;;16.33;;
77415;SDS011;66489;49.230;8.520;2023-03-16T03:32:32;27.08;;;16.00;;
77415;SDS011;66489;49.230;8.520;2023-03-16T03:34:59;29.98;;;16.63;;
77415;SDS011;66489;49.230;8.520;2023-03-16T03:37:26;31.33;;;16.85;;
77415;SDS011;66489;49.230;8.520;2023-03-16T03:39:54;30.90;;;17.10;;
77415;SDS011;66489;49.230;8.520;2023-03-16T03:42:21;29.52;;;17.13;;
77415;SDS011;66489;49.230;8.520;2023-03-16T03:44:51;28.30;;;16.40;;
77415;SDS011;66489;49.230;8.520;2023-03-16T03:47:18;25.95;;;15.27;;
77415;SDS011;66489;49.230;8.520;2023-03-16T03:49:44;27.65;;;15.70;;
77415;SDS011;66489;49.230;8.520;2023-03-16T03:52:11;27.65;;;16.20;;
77415;SDS011;66489;49.230;8.520;2023-03-16T03:54:41;28.63;;;15.35;;
77415;SDS011;66489;49.230;8.520;2023-03-16T03:57:11;29.15;;;15.77;;
77415;SDS011;66489;49.230;8.520;2023-03-16T03:59:38;27.88;;;16.13;;
77415;SDS011;66489;49.230;8.520;2023-03-16T04:02:21;27.77;;;15.68;;
77415;SDS011;66489;49.230;8.520;2023-03-16T04:07:18;27.30;;;15.52;;
77415;SDS011;66489;49.230;8.520;2023-03-16T04:09:45;29.98;;;15.82;;
77415;SDS011;66489;49.230;8.520;2023-03-16T04:12:22;27.55;;;15.95;;
77415;SDS011;66489;49.230;8.520;2023-03-16T04:14:50;25.83;;;14.82;;
77415;SDS011;66489;49.230;8.520;2023-03-16T04:17:17;26.20;;;15.50;;
77415;SDS011;66489;49.230;8.520;2023-03-16T04:19:44;26.88;;;15.75;;
77415;SDS011;66489;49.230;8.520;2023-03-16T04:22:15;27.88;;;15.60;;
77415;SDS011;66489;49.230;8.520;2023-03-16T04:24:43;27.23;;;15.25;;
77415;SDS011;66489;49.230;8.520;2023-03-16T04:27:11;26.55;;;15.25;;
77415;SDS011;66489;49.230;8.520;2023-03-16T04:29:38;25.50;;;14.73;;
77415;SDS011;66489;49.230;8.520;2023-03-16T04:32:05;28.02;;;15.52;;
77415;SDS011;66489;49.230;8.520;2023-03-16T04:34:32;27.02;;;15.20;;
77415;SDS011;66489;49.230;8.520;2023-03-16T04:37:02;24.88;;;14.45;;
77415;SDS011;66489;49.230;8.520;2023-03-16T04:39:31;27.40;;;14.73;;
77415;SDS011;66489;49.230;8.520;2023-03-16T04:41:58;25.58;;;14.25;;
77415;SDS011;66489;49.230;8.520;2023-03-16T04:44:26;24.30;;;14.60;;
77415;SDS011;66489;49.230;8.520;2023-03-16T04:46:53;24.42;;;14.20;;
77415;SDS011;66489;49.230;8.520;2023-03-16T04:49:21;25.63;;;14.10;;
77415;SDS011;66489;49.230;8.520;2023-03-16T04:51:48;27.48;;;14.43;;
77415;SDS011;66489;49.230;8.520;2023-03-16T04:54:17;25.80;;;14.57;;
77415;SDS011;66489;49.230;8.520;2023-03-16T04:56:44;24.17;;;14.45;;
77415;SDS011;66489;49.230;8.520;2023-03-16T04:59:35;26.30;;;14.30;;
77415;SDS011;66489;49.230;8.520;2023-03-16T05:02:10;25.30;;;13.93;;
77415;SDS011;66489;49.230;8.520;2023-03-16T05:04:37;24.13;;;13.35;;
77415;SDS011;66489;49.230;8.520;2023-03-16T05:07:07;24.08;;;13.98;;
77415;SDS011;66489;49.230;8.520;2023-03-16T05:12:04;25.35;;;14.02;;
77415;SDS011;66489;49.230;8.520;2023-03-16T05:14:31;26.10;;;14.23;;
77415;SDS011;66489;49.230;8.520;2023-03-16T05:17:10;25.52;;;14.07;;
77415;SDS011;66489;49.230;8.520;2023-03-16T05:19:41;24.20;;;14.10;;
77415;SDS011;66489;49.230;8.520;2023-03-16T05:22:08;25.38;;;14.65;;
77415;SDS011;66489;49.230;8.520;2023-03-16T05:24:37;26.48;;;13.73;;
77415;SDS011;66489;49.230;8.520;2023-03-16T05:27:03;23.92;;;13.80;;
77415;SDS011;66489;49.230;8.520;2023-03-16T05:29:30;23.83;;;13.85;;
77415;SDS011;66489;49.230;8.520;2023-03-16T05:32:00;26.15;;;14.20;;
77415;SDS011;66489;49.230;8.520;2023-03-16T05:34:27;25.45;;;14.07;;
77415;SDS011;66489;49.230;8.520;2023-03-16T05:36:54;24.27;;;13.90;;
77415;SDS011;66489;49.230;8.520;2023-03-16T05:39:24;25.20;;;14.20;;
77415;SDS011;66489;49.230;8.520;2023-03-16T05:41:51;28.40;;;15.35;;
77415;SDS011;66489;49.230;8.520;2023-03-16T05:44:24;27.17;;;14.65;;
77415;SDS011;66489;49.230;8.520;2023-03-16T05:47:17;28.55;;;15.52;;
77415;SDS011;66489;49.230;8.520;2023-03-16T05:49:49;30.10;;;15.80;;
77415;SDS011;66489;49.230;8.520;2023-03-16T05:52:29;30.42;;;15.10;;
77415;SDS011;66489;49.230;8.520;2023-03-16T05:54:59;27.67;;;14.93;;
77415;SDS011;66489;49.230;8.520;2023-03-16T05:57:25;27.30;;;14.35;;
77415;SDS011;66489;49.230;8.520;2023-03-16T05:59:53;25.65;;;13.85;;
77415;SDS011;66489;49.230;8.520;2023-03-16T06:02:21;23.48;;;13.40;;
77415;SDS011;66489;49.230;8.520;2023-03-16T06:04:47;24.85;;;14.25;;
77415;SDS011;66489;49.230;8.520;2023-03-16T06:07:14;24.48;;;13.43;;
77415;SDS011;66489;49.230;8.520;2023-03-16T06:09:41;25.80;;;13.63;;
77415;SDS011;66489;49.230;8.520;2023-03-16T06:12:12;23.75;;;12.85;;
77415;SDS011;66489;49.230;8.520;2023-03-16T06:14:40;22.90;;;12.68;;
77415;SDS011;66489;49.230;8.520;2023-03-16T06:17:06;23.65;;;12.88;;
77415;SDS011;66489;49.230;8.520;2023-03-16T06:19:34;23.60;;;13.30;;
77415;SDS011;66489;49.230;8.520;2023-03-16T06:22:01;22.67;;;12.60;;
77415;SDS011;66489;49.230;8.520;2023-03-16T06:24:28;22.08;;;13.57;;
77415;SDS011;66489;49.230;8.520;2023-03-16T06:26:55;23.40;;;13.43;;
77415;SDS011;66489;49.230;8.520;2023-03-16T06:29:29;23.02;;;13.68;;
77415;SDS011;66489;49.230;8.520;2023-03-16T06:31:56;23.80;;;13.30;;
77415;SDS011;66489;49.230;8.520;2023-03-16T06:34:22;23.50;;;13.60;;
77415;SDS011;66489;49.230;8.520;2023-03-16T06:36:49;22.73;;;12.80;;
77415;SDS011;66489;49.230;8.520;2023-03-16T06:39:17;21.00;;;12.98;;
77415;SDS011;66489;49.230;8.520;2023-03-16T06:41:47;24.10;;;13.27;;
77415;SDS011;66489;49.230;8.520;2023-03-16T06:44:15;23.77;;;13.05;;
77415;SDS011;66489;49.230;8.520;2023-03-16T06:46:52;22.75;;;13.18;;
77415;SDS011;66489;49.230;8.520;2023-03-16T06:49:18;25.30;;;13.68;;
77415;SDS011;66489;49.230;8.520;2023-03-16T06:51:45;23.08;;;13.18;;
77415;SDS011;66489;49.230;8.520;2023-03-16T06:54:12;25.15;;;13.82;;
77415;SDS011;66489;49.230;8.520;2023-03-16T06:56:39;22.77;;;13.07;;
77415;SDS011;66489;49.230;8.520;2023-03-16T06:59:06;22.77;;;13.77;;
77415;SDS011;66489;49.230;8.520;2023-03-16T07:01:34;22.75;;;13.73;;
77415;SDS011;66489;49.230;8.520;2023-03-16T07:04:01;22.20;;;12.48;;
77415;SDS011;66489;49.230;8.520;2023-03-16T07:06:30;23.63;;;13.87;;
77415;SDS011;66489;49.230;8.520;2023-03-16T07:08:57;22.38;;;12.73;;
77415;SDS011;66489;49.230;8.520;2023-03-16T07:11:26;22.33;;;13.07;;
77415;SDS011;66489;49.230;8.520;2023-03-16T07:13:53;21.33;;;12.90;;
77415;SDS011;66489;49.230;8.520;2023-03-16T07:16:21;21.17;;;11.70;;
77415;SDS011;66489;49.230;8.520;2023-03-16T07:18:48;20.77;;;12.43;;
77415;SDS011;66489;49.230;8.520;2023-03-16T07:21:17;21.67;;;11.93;;
77415;SDS011;66489;49.230;8.520;2023-03-16T07:23:45;21.55;;;12.38;;
77415;SDS011;66489;49.230;8.520;2023-03-16T07:26:15;22.70;;;12.35;;
77415;SDS011;66489;49.230;8.520;2023-03-16T07:28:52;20.65;;;12.10;;
77415;SDS011;66489;49.230;8.520;2023-03-16T07:31:19;21.23;;;12.75;;
77415;SDS011;66489;49.230;8.520;2023-03-16T07:33:46;20.00;;;12.52;;
77415;SDS011;66489;49.230;8.520;2023-03-16T07:36:19;22.58;;;13.00;;
77415;SDS011;66489;49.230;8.520;2023-03-16T07:38:52;21.67;;;12.43;;
77415;SDS011;66489;49.230;8.520;2023-03-16T07:41:19;22.42;;;12.70;;
77415;SDS011;66489;49.230;8.520;2023-03-16T07:44:13;19.42;;;11.45;;
77415;SDS011;66489;49.230;8.520;2023-03-16T07:46:46;17.42;;;10.85;;
77415;SDS011;66489;49.230;8.520;2023-03-16T07:49:13;19.98;;;11.65;;
77415;SDS011;66489;49.230;8.520;2023-03-16T07:51:39;19.65;;;10.90;;
77415;SDS011;66489;49.230;8.520;2023-03-16T07:54:09;17.15;;;10.85;;
77415;SDS011;66489;49.230;8.520;2023-03-16T07:56:38;18.63;;;10.60;;
77415;SDS011;66489;49.230;8.520;2023-03-16T07:59:25;18.40;;;10.90;;
77415;SDS011;66489;49.230;8.520;2023-03-16T08:01:55;21.98;;;12.57;;
77415;SDS011;66489;49.230;8.520;2023-03-16T08:04:21;17.85;;;10.40;;
77415;SDS011;66489;49.230;8.520;2023-03-16T08:06:51;18.00;;;10.88;;
77415;SDS011;66489;49.230;8.520;2023-03-16T08:09:23;15.82;;;9.98;;
77415;SDS011;66489;49.230;8.520;2023-03-16T08:11:50;18.40;;;10.55;;
77415;SDS011;66489;49.230;8.520;2023-03-16T08:14:17;18.33;;;10.63;;
77415;SDS011;66489;49.230;8.520;2023-03-16T08:19:28;17.23;;;9.80;;
77415;SDS011;66489;49.230;8.520;2023-03-16T08:21:57;16.27;;;10.10;;
77415;SDS011;66489;49.230;8.520;2023-03-16T08:24:34;16.52;;;9.63;;
77415;SDS011;66489;49.230;8.520;2023-03-16T08:27:02;16.05;;;9.40;;
77415;SDS011;66489;49.230;8.520;2023-03-16T08:29:30;17.95;;;10.23;;
77415;SDS011;66489;49.230;8.520;2023-03-16T08:32:00;17.67;;;11.70;;
77415;SDS011;66489;49.230;8.520;2023-03-16T08:34:33;15.48;;;9.98;;
77415;SDS011;66489;49.230;8.520;2023-03-16T08:37:01;21.33;;;12.40;;
77415;SDS011;66489;49.230;8.520;2023-03-16T08:39:29;17.88;;;10.27;;
77415;SDS011;66489;49.230;8.520;2023-03-16T08:41:56;16.30;;;10.68;;
77415;SDS011;66489;49.230;8.520;2023-03-16T08:44:32;15.73;;;9.43;;
77415;SDS011;66489;49.230;8.520;2023-03-16T08:46:59;14.90;;;8.95;;
77415;SDS011;66489;49.230;8.520;2023-03-16T08:49:30;12.73;;;7.93;;
77415;SDS011;66489;49.230;8.520;2023-03-16T08:52:02;12.45;;;8.40;;
77415;SDS011;66489;49.230;8.520;2023-03-16T08:54:30;12.85;;;8.20;;
77415;SDS011;66489;49.230;8.520;2023-03-16T08:56:59;11.57;;;7.93;;
77415;SDS011;66489;49.230;8.520;2023-03-16T08:59:26;12.23;;;8.27;;
77415;SDS011;66489;49.230;8.520;2023-03-16T09:01:56;12.55;;;7.60;;
77415;SDS011;66489;49.230;8.520;2023-03-16T09:04:26;13.35;;;8.27;;
77415;SDS011;66489;49.230;8.520;2023-03-16T09:06:53;11.80;;;7.45;;
77415;SDS011;66489;49.230;8.520;2023-03-16T09:09:34;11.45;;;7.10;;
77415;SDS011;66489;49.230;8.520;2023-03-16T09:12:01;9.95;;;6.50;;
77415;SDS011;66489;49.230;8.520;2023-03-16T09:14:31;10.90;;;6.45;;
77415;SDS011;66489;49.230;8.520;2023-03-16T09:16:58;10.43;;;6.90;;
77415;SDS011;66489;49.230;8.520;2023-03-16T09:19:25;11.02;;;6.45;;
77415;SDS011;66489;49.230;8.520;2023-03-16T09:21:54;10.68;;;6.75;;
77415;SDS011;66489;49.230;8.520;2023-03-16T09:24:20;10.73;;;6.53;;
77415;SDS011;66489;49.230;8.520;2023-03-16T09:26:51;10.32;;;6.18;;
77415;SDS011;66489;49.230;8.520;2023-03-16T09:29:17;11.57;;;6.40;;
77415;SDS011;66489;49.230;8.520;2023-03-16T09:31:44;11.57;;;6.07;;
77415;SDS011;66489;49.230;8.520;2023-03-16T09:34:11;9.25;;;5.75;;
77415;SDS011;66489;49.230;8.520;2023-03-16T09:36:38;9.70;;;6.28;;
77415;SDS011;66489;49.230;8.520;2023-03-16T09:39:04;16.60;;;9.70;;
77415;SDS011;66489;49.230;8.520;2023-03-16T09:44:25;13.40;;;7.50;;
77415;SDS011;66489;49.230;8.520;2023-03-16T09:47:00;10.85;;;6.57;;
77415;SDS011;66489;49.230;8.520;2023-03-16T09:49:34;9.75;;;5.80;;
77415;SDS011;66489;49.230;8.520;2023-03-16T09:55:00;10.77;;;7.03;;
77415;SDS011;66489;49.230;8.520;2023-03-16T09:57:32;8.18;;;5.47;;
77415;SDS011;66489;49.230;8.520;2023-03-16T10:02:55;9.27;;;6.13;;
77415;SDS011;66489;49.230;8.520;2023-03-16T10:05:26;8.52;;;4.40;;
77415;SDS011;66489;49.230;8.520;2023-03-16T10:12:53;8.90;;;4.90;;
77415;SDS011;66489;49.230;8.520;2023-03-16T10:15:25;10.13;;;4.22;;
77415;SDS011;66489;49.230;8.520;2023-03-16T10:20:26;7.20;;;4.15;;
77415;SDS011;66489;49.230;8.520;2023-03-16T10:22:54;6.57;;;3.97;;
77415;SDS011;66489;49.230;8.520;2023-03-16T10:25:21;12.35;;;6.22;;
77415;SDS011;66489;49.230;8.520;2023-03-16T10:28:16;10.55;;;5.05;;
77415;SDS011;66489;49.230;8.520;2023-03-16T10:30:48;7.50;;;4.20;;
77415;SDS011;66489;49.230;8.520;2023-03-16T10:33:29;5.93;;;3.85;;
77415;SDS011;66489;49.230;8.520;2023-03-16T10:38:46;7.38;;;3.80;;
77415;SDS011;66489;49.230;8.520;2023-03-16T10:46:47;6.90;;;3.88;;
77415;SDS011;66489;49.230;8.520;2023-03-16T10:49:36;6.35;;;3.75;;
77415;SDS011;66489;49.230;8.520;2023-03-16T10:52:17;7.25;;;3.83;;
77415;SDS011;66489;49.230;8.520;2023-03-16T10:54:47;6.25;;;3.78;;
77415;SDS011;66489;49.230;8.520;2023-03-16T10:59:49;5.93;;;3.90;;
77415;SDS011;66489;49.230;8.520;2023-03-16T11:02:22;6.35;;;3.72;;
77415;SDS011;66489;49.230;8.520;2023-03-16T11:04:52;5.90;;;3.47;;
77415;SDS011;66489;49.230;8.520;2023-03-16T11:07:20;6.55;;;3.78;;
77415;SDS011;66489;49.230;8.520;2023-03-16T11:09:54;6.07;;;3.67;;
77415;SDS011;66489;49.230;8.520;2023-03-16T11:12:30;6.65;;;3.55;;
77415;SDS011;66489;49.230;8.520;2023-03-16T11:15:00;8.90;;;4.40;;
77415;SDS011;66489;49.230;8.520;2023-03-16T11:17:42;7.57;;;3.92;;
77415;SDS011;66489;49.230;8.520;2023-03-16T11:20:14;7.35;;;3.83;;
77415;SDS011;66489;49.230;8.520;2023-03-16T11:22:43;6.65;;;4.35;;
77415;SDS011;66489;49.230;8.520;2023-03-16T11:25:21;7.75;;;4.03;;
77415;SDS011;66489;49.230;8.520;2023-03-16T11:28:14;8.15;;;4.65;;
77415;SDS011;66489;49.230;8.520;2023-03-16T11:30:45;7.30;;;4.30;;
77415;SDS011;66489;49.230;8.520;2023-03-16T11:33:15;6.10;;;4.00;;
77415;SDS011;66489;49.230;8.520;2023-03-16T11:35:51;6.50;;;4.50;;
77415;SDS011;66489;49.230;8.520;2023-03-16T11:44:35;7.55;;;3.97;;
77415;SDS011;66489;49.230;8.520;2023-03-16T11:47:18;8.05;;;4.47;;
77415;SDS011;66489;49.230;8.520;2023-03-16T11:50:12;6.88;;;4.20;;
77415;SDS011;66489;49.230;8.520;2023-03-16T11:55:22;7.15;;;4.28;;
77415;SDS011;66489;49.230;8.520;2023-03-16T12:14:25;5.88;;;3.92;;
77415;SDS011;66489;49.230;8.520;2023-03-16T12:19:47;5.88;;;3.80;;
77415;SDS011;66489;49.230;8.520;2023-03-16T12:22:21;5.50;;;3.28;;
77415;SDS011;66489;49.230;8.520;2023-03-16T12:24:59;7.38;;;3.60;;
77415;SDS011;66489;49.230;8.520;2023-03-16T12:27:27;5.88;;;3.92;;
77415;SDS011;66489;49.230;8.520;2023-03-16T12:32:47;8.35;;;3.97;;
77415;SDS011;66489;49.230;8.520;2023-03-16T12:35:28;7.85;;;4.10;;
77415;SDS011;66489;49.230;8.520;2023-03-16T12:40:37;5.68;;;3.78;;
77415;SDS011;66489;49.230;8.520;2023-03-16T12:43:25;6.18;;;3.47;;
77415;SDS011;66489;49.230;8.520;2023-03-16T12:46:11;5.63;;;3.25;;
77415;SDS011;66489;49.230;8.520;2023-03-16T12:48:59;5.88;;;3.42;;
77415;SDS011;66489;49.230;8.520;2023-03-16T12:51:31;7.15;;;3.65;;
77415;SDS011;66489;49.230;8.520;2023-03-16T12:54:02;5.03;;;3.28;;
77415;SDS011;66489;49.230;8.520;2023-03-16T12:56:34;6.40;;;3.25;;
77415;SDS011;66489;49.230;8.520;2023-03-16T12:59:03;6.82;;;3.05;;
77415;SDS011;66489;49.230;8.520;2023-03-16T13:01:40;5.13;;;3.10;;
77415;SDS011;66489;49.230;8.520;2023-03-16T13:04:12;6.30;;;3.05;;
77415;SDS011;66489;49.230;8.520;2023-03-16T13:06:42;5.43;;;3.08;;
77415;SDS011;66489;49.230;8.520;2023-03-16T13:09:11;9.63;;;6.90;;
77415;SDS011;66489;49.230;8.520;2023-03-16T13:11:39;6.53;;;4.10;;
77415;SDS011;66489;49.230;8.520;2023-03-16T13:14:08;5.40;;;3.00;;
77415;SDS011;66489;49.230;8.520;2023-03-16T13:16:40;4.55;;;2.40;;
77415;SDS011;66489;49.230;8.520;2023-03-16T13:19:21;4.13;;;2.30;;
77415;SDS011;66489;49.230;8.520;2023-03-16T13:21:58;7.18;;;3.90;;
77415;SDS011;66489;49.230;8.520;2023-03-16T13:24:49;4.72;;;2.50;;
77415;SDS011;66489;49.230;8.520;2023-03-16T13:27:29;3.75;;;2.38;;
77415;SDS011;66489;49.230;8.520;2023-03-16T13:29:58;3.92;;;2.22;;
77415;SDS011;66489;49.230;8.520;2023-03-16T13:32:31;3.92;;;2.13;;
77415;SDS011;66489;49.230;8.520;2023-03-16T13:34:59;5.10;;;2.10;;
77415;SDS011;66489;49.230;8.520;2023-03-16T13:37:27;6.43;;;2.22;;
77415;SDS011;66489;49.230;8.520;2023-03-16T13:39:59;5.57;;;2.42;;
77415;SDS011;66489;49.230;8.520;2023-03-16T13:42:30;4.53;;;2.08;;
77415;SDS011;66489;49.230;8.520;2023-03-16T13:45:05;4.47;;;2.10;;
77415;SDS011;66489;49.230;8.520;2023-03-16T13:47:40;4.25;;;2.08;;
77415;SDS011;66489;49.230;8.520;2023-03-16T13:50:12;4.50;;;2.15;;
77415;SDS011;66489;49.230;8.520;2023-03-16T13:52:39;5.03;;;2.40;;
77415;SDS011;66489;49.230;8.520;2023-03-16T13:55:17;5.03;;;2.13;;
77415;SDS011;66489;49.230;8.520;2023-03-16T13:57:48;5.40;;;2.30;;
77415;SDS011;66489;49.230;8.520;2023-03-16T14:02:55;3.60;;;1.90;;
77415;SDS011;66489;49.230;8.520;2023-03-16T14:05:29;4.10;;;2.00;;
77415;SDS011;66489;49.230;8.520;2023-03-16T14:07:58;5.18;;;2.33;;
77415;SDS011;66489;49.230;8.520;2023-03-16T14:10:28;6.10;;;2.83;;
77415;SDS011;66489;49.230;8.520;2023-03-16T14:13:08;5.13;;;2.60;;
77415;SDS011;66489;49.230;8.520;2023-03-16T14:15:56;4.85;;;2.40;;
77415;SDS011;66489;49.230;8.520;2023-03-16T14:18:31;5.20;;;3.03;;
77415;SDS011;66489;49.230;8.520;2023-03-16T14:21:13;6.60;;;3.47;;
77415;SDS011;66489;49.230;8.520;2023-03-16T14:23:45;5.25;;;2.80;;
77415;SDS011;66489;49.230;8.520;2023-03-16T14:26:14;6.93;;;2.75;;
77415;SDS011;66489;49.230;8.520;2023-03-16T14:29:00;6.30;;;3.15;;
77415;SDS011;66489;49.230;8.520;2023-03-16T14:31:32;5.72;;;2.60;;
77415;SDS011;66489;49.230;8.520;2023-03-16T14:34:02;4.43;;;2.40;;
77415;SDS011;66489;49.230;8.520;2023-03-16T14:36:37;8.25;;;2.80;;
77415;SDS011;66489;49.230;8.520;2023-03-16T14:39:14;7.93;;;2.63;;
77415;SDS011;66489;49.230;8.520;2023-03-16T14:41:42;4.80;;;2.70;;
77415;SDS011;66489;49.230;8.520;2023-03-16T14:44:27;5.33;;;2.33;;
77415;SDS011;66489;49.230;8.520;2023-03-16T14:47:01;4.60;;;2.25;;
77415;SDS011;66489;49.230;8.520;2023-03-16T14:49:36;4.85;;;2.35;;
77415;SDS011;66489;49.230;8.520;2023-03-16T14:54:51;4.80;;;2.67;;
77415;SDS011;66489;49.230;8.520;2023-03-16T14:57:20;5.63;;;3.13;;
77415;SDS011;66489;49.230;8.520;2023-03-16T14:59:47;10.00;;;5.30;;
77415;SDS011;66489;49.230;8.520;2023-03-16T15:02:18;7.53;;;4.47;;
77415;SDS011;66489;49.230;8.520;2023-03-16T15:04:53;6.10;;;2.70;;
77415;SDS011;66489;49.230;8.520;2023-03-16T15:07:24;5.70;;;2.70;;
77415;SDS011;66489;49.230;8.520;2023-03-16T15:09:58;6.00;;;2.50;;
77415;SDS011;66489;49.230;8.520;2023-03-16T15:12:27;6.35;;;2.50;;
77415;SDS011;66489;49.230;8.520;2023-03-16T15:14:53;6.20;;;2.85;;
77415;SDS011;66489;49.230;8.520;2023-03-16T15:17:42;7.18;;;2.53;;
77415;SDS011;66489;49.230;8.520;2023-03-16T15:20:11;5.57;;;2.60;;
77415;SDS011;66489;49.230;8.520;2023-03-16T15:22:38;5.57;;;2.63;;
77415;SDS011;66489;49.230;8.520;2023-03-16T15:25:19;6.43;;;2.60;;
77415;SDS011;66489;49.230;8.520;2023-03-16T15:27:49;6.90;;;3.08;;
77415;SDS011;66489;49.230;8.520;2023-03-16T15:30:17;4.93;;;2.58;;
77415;SDS011;66489;49.230;8.520;2023-03-16T15:32:54;6.78;;;3.20;;
77415;SDS011;66489;49.230;8.520;2023-03-16T15:35:21;5.18;;;2.72;;
77415;SDS011;66489;49.230;8.520;2023-03-16T15:37:48;5.95;;;2.33;;
77415;SDS011;66489;49.230;8.520;2023-03-16T15:40:22;4.45;;;2.28;;
77415;SDS011;66489;49.230;8.520;2023-03-16T15:42:51;7.18;;;2.08;;
77415;SDS011;66489;49.230;8.520;2023-03-16T15:45:19;4.25;;;1.70;;
77415;SDS011;66489;49.230;8.520;2023-03-16T15:47:47;5.75;;;2.30;;
77415;SDS011;66489;49.230;8.520;2023-03-16T15:50:15;5.35;;;3.15;;
77415;SDS011;66489;49.230;8.520;2023-03-16T15:55:13;6.35;;;2.30;;
77415;SDS011;66489;49.230;8.520;2023-03-16T15:57:41;5.30;;;2.88;;
77415;SDS011;66489;49.230;8.520;2023-03-16T16:00:15;5.22;;;2.33;;
77415;SDS011;66489;49.230;8.520;2023-03-16T16:02:57;6.15;;;2.60;;
77415;SDS011;66489;49.230;8.520;2023-03-16T16:05:24;7.00;;;3.30;;
77415;SDS011;66489;49.230;8.520;2023-03-16T16:07:52;4.93;;;2.53;;
77415;SDS011;66489;49.230;8.520;2023-03-16T16:10:19;7.05;;;3.10;;
77415;SDS011;66489;49.230;8.520;2023-03-16T16:12:46;4.97;;;2.20;;
77415;SDS011;66489;49.230;8.520;2023-03-16T16:15:20;4.38;;;1.90;;
77415;SDS011;66489;49.230;8.520;2023-03-16T16:18:16;5.30;;;2.25;;
77415;SDS011;66489;49.230;8.520;2023-03-16T16:20:47;4.32;;;2.40;;
77415;SDS011;66489;49.230;8.520;2023-03-16T16:23:14;8.70;;;4.72;;